createdAt,value
2023-08-23T00:02:01.112Z,7.10
2023-08-23T00:04:30.755Z,7.30
2023-08-23T00:06:57.989Z,7.60
2023-08-23T00:09:25.099Z,8.70
2023-08-23T00:11:52.221Z,6.63
2023-08-23T00:14:19.316Z,7.87
2023-08-23T00:16:46.577Z,8.03
2023-08-23T00:19:13.698Z,8.67
2023-08-23T00:21:40.909Z,6.87
2023-08-23T00:24:08.087Z,7.40
2023-08-23T00:26:35.197Z,8.03
2023-08-23T00:29:02.288Z,7.53
2023-08-23T00:31:29.445Z,7.73
2023-08-23T00:33:56.886Z,7.90
2023-08-23T00:36:24.055Z,7.53
2023-08-23T00:38:51.140Z,8.70
2023-08-23T00:41:18.257Z,7.80
2023-08-23T00:43:45.349Z,7.93
2023-08-23T00:46:12.430Z,8.40
2023-08-23T00:48:39.520Z,8.63
2023-08-23T00:51:06.601Z,7.40
2023-08-23T00:53:33.657Z,8.80
2023-08-23T00:56:01.289Z,7.90
2023-08-23T00:58:28.368Z,7.90
2023-08-23T01:00:55.524Z,8.30
2023-08-23T01:03:22.593Z,8.27
2023-08-23T01:06:08.617Z,8.17
2023-08-23T01:09:02.055Z,7.93
2023-08-23T01:11:32.869Z,8.40
2023-08-23T01:14:01.461Z,7.60
2023-08-23T01:16:28.590Z,7.97
2023-08-23T01:18:56.739Z,6.87
2023-08-23T01:21:29.600Z,7.60
2023-08-23T01:23:56.721Z,8.40
2023-08-23T01:26:23.831Z,8.37
2023-08-23T01:28:52.517Z,8.27
2023-08-23T01:31:22.102Z,9.10
2023-08-23T01:33:51.613Z,10.10
2023-08-23T01:36:19.757Z,9.23
2023-08-23T01:38:46.817Z,9.93
2023-08-23T01:41:13.925Z,8.93
2023-08-23T01:43:40.975Z,10.03
2023-08-23T01:46:08.081Z,8.97
2023-08-23T01:48:35.157Z,9.40
2023-08-23T01:51:02.240Z,9.17
2023-08-23T01:53:29.300Z,9.70
2023-08-23T01:55:56.405Z,9.00
2023-08-23T01:58:25.360Z,10.10
2023-08-23T02:00:52.454Z,9.90
2023-08-23T02:03:19.731Z,8.80
2023-08-23T02:05:46.989Z,8.53
2023-08-23T02:08:15.459Z,8.90
2023-08-23T02:10:43.442Z,9.17
2023-08-23T02:13:10.587Z,8.90
2023-08-23T02:15:37.729Z,9.57
2023-08-23T02:18:04.956Z,8.50
2023-08-23T02:20:32.100Z,8.60
2023-08-23T02:22:59.195Z,8.90
2023-08-23T02:25:26.322Z,8.63
2023-08-23T02:27:53.445Z,9.50
2023-08-23T02:30:20.631Z,10.00
2023-08-23T02:32:47.781Z,9.20
2023-08-23T02:35:14.913Z,9.40
2023-08-23T02:37:42.033Z,10.87
2023-08-23T02:40:09.365Z,9.07
2023-08-23T02:42:36.470Z,9.50
2023-08-23T02:45:03.651Z,11.47
2023-08-23T02:47:30.765Z,9.00
2023-08-23T02:53:27.035Z,9.80
2023-08-23T02:55:54.160Z,9.20
2023-08-23T02:58:21.305Z,9.70
2023-08-23T03:00:48.592Z,9.07
2023-08-23T03:03:15.714Z,8.70
2023-08-23T03:05:42.844Z,8.20
2023-08-23T03:08:09.941Z,14.27
2023-08-23T03:10:37.070Z,9.53
2023-08-23T03:13:04.212Z,9.00
2023-08-23T03:15:31.343Z,8.70
2023-08-23T03:17:58.464Z,9.83
2023-08-23T03:20:25.608Z,9.50
2023-08-23T03:22:52.706Z,9.97
2023-08-23T03:25:19.825Z,9.53
2023-08-23T03:27:53.129Z,8.93
2023-08-23T03:30:20.615Z,8.50
2023-08-23T03:32:47.937Z,10.03
2023-08-23T03:35:15.152Z,8.50
2023-08-23T03:37:42.255Z,9.93
2023-08-23T03:40:37.388Z,8.37
2023-08-23T03:43:04.604Z,9.70
2023-08-23T03:45:32.006Z,10.60
2023-08-23T03:47:59.183Z,8.43
2023-08-23T03:50:26.327Z,9.23
2023-08-23T03:52:53.445Z,9.83
2023-08-23T03:55:20.555Z,9.20
2023-08-23T03:57:48.063Z,10.37
2023-08-23T04:00:15.616Z,9.93
2023-08-23T04:02:44.499Z,9.43
2023-08-23T04:05:14.519Z,9.73
2023-08-23T04:07:41.962Z,9.40
2023-08-23T04:10:09.298Z,10.13
2023-08-23T04:12:36.569Z,10.57
2023-08-23T04:15:04.062Z,10.70
2023-08-23T04:17:31.378Z,11.67
2023-08-23T04:19:58.489Z,10.23
2023-08-23T04:22:25.628Z,10.30
2023-08-23T04:24:52.827Z,12.60
2023-08-23T04:27:19.940Z,12.50
2023-08-23T04:29:47.066Z,11.50
2023-08-23T04:32:14.408Z,12.70
2023-08-23T04:34:41.681Z,11.73
2023-08-23T04:37:09.910Z,11.80
2023-08-23T04:39:37.042Z,12.20
2023-08-23T04:42:04.176Z,10.80
2023-08-23T04:44:31.276Z,12.43
2023-08-23T04:46:59.680Z,12.13
2023-08-23T04:49:26.856Z,11.97
2023-08-23T04:51:53.977Z,11.70
2023-08-23T04:54:21.071Z,12.83
2023-08-23T04:56:48.257Z,12.40
2023-08-23T04:59:15.352Z,11.50
2023-08-23T05:01:42.481Z,11.83
2023-08-23T05:04:09.710Z,11.20
2023-08-23T05:06:37.081Z,10.50
2023-08-23T05:09:06.113Z,11.80
2023-08-23T05:11:33.612Z,11.40
2023-08-23T05:14:00.752Z,11.53
2023-08-23T05:16:28.060Z,9.33
2023-08-23T05:18:55.205Z,11.17
2023-08-23T05:21:22.303Z,10.47
2023-08-23T05:23:49.523Z,10.87
2023-08-23T05:26:16.690Z,11.73
2023-08-23T05:28:43.890Z,9.53
2023-08-23T05:31:11.085Z,10.40
2023-08-23T05:33:40.246Z,10.23
2023-08-23T05:36:07.454Z,9.83
2023-08-23T05:38:34.597Z,10.23
2023-08-23T05:41:01.885Z,9.67
2023-08-23T05:43:29.544Z,10.23
2023-08-23T05:45:57.858Z,9.53
2023-08-23T05:48:25.045Z,9.37
2023-08-23T05:50:52.251Z,8.90
2023-08-23T05:53:22.516Z,10.90
2023-08-23T05:55:50.032Z,9.30
2023-08-23T05:58:19.013Z,9.47
2023-08-23T06:00:46.541Z,8.90
2023-08-23T06:03:16.761Z,9.10
2023-08-23T06:05:44.389Z,9.80
2023-08-23T06:08:11.529Z,9.27
2023-08-23T06:10:38.689Z,8.40
2023-08-23T06:13:05.965Z,11.23
2023-08-23T06:15:33.100Z,9.03
2023-08-23T06:18:00.371Z,9.13
2023-08-23T06:20:30.020Z,9.03
2023-08-23T06:22:57.615Z,8.50
2023-08-23T06:25:24.714Z,8.67
2023-08-23T06:27:51.815Z,8.90
2023-08-23T06:30:18.978Z,8.47
2023-08-23T06:32:47.428Z,8.37
2023-08-23T06:35:17.993Z,7.63
2023-08-23T06:37:45.718Z,6.80
2023-08-23T06:40:13.416Z,7.67
2023-08-23T06:42:40.759Z,7.63
2023-08-23T06:45:09.140Z,7.73
2023-08-23T06:47:36.384Z,8.40
2023-08-23T06:50:04.567Z,7.60
2023-08-23T06:52:33.485Z,7.80
2023-08-23T06:55:00.590Z,7.90
2023-08-23T06:57:31.143Z,7.27
2023-08-23T06:59:58.660Z,7.60
2023-08-23T07:02:28.616Z,7.40
2023-08-23T07:04:55.804Z,7.07
2023-08-23T07:07:23.048Z,6.43
2023-08-23T07:09:51.022Z,7.17
2023-08-23T07:12:18.139Z,9.67
2023-08-23T07:14:46.744Z,7.23
2023-08-23T07:17:14.260Z,6.23
2023-08-23T07:19:41.382Z,6.50
2023-08-23T07:22:08.558Z,7.70
2023-08-23T07:24:35.698Z,8.10
2023-08-23T07:27:02.859Z,10.33
2023-08-23T07:29:30.824Z,6.17
2023-08-23T07:31:58.666Z,6.23
2023-08-23T07:34:27.371Z,7.17
2023-08-23T07:36:54.531Z,6.33
2023-08-23T07:39:21.969Z,6.33
2023-08-23T07:41:49.138Z,7.23
2023-08-23T07:44:16.279Z,6.47
2023-08-23T07:46:43.490Z,6.50
2023-08-23T07:49:10.670Z,6.83
2023-08-23T07:51:38.002Z,5.90
2023-08-23T07:54:05.204Z,5.80
2023-08-23T07:56:32.396Z,6.70
2023-08-23T07:58:59.559Z,8.63
2023-08-23T08:01:26.756Z,6.60
2023-08-23T08:03:54.162Z,6.90
2023-08-23T08:06:21.424Z,6.67
2023-08-23T08:08:48.607Z,6.07
2023-08-23T08:11:16.128Z,7.40
2023-08-23T08:13:43.347Z,6.40
2023-08-23T08:16:11.296Z,6.43
2023-08-23T08:18:38.704Z,5.93
2023-08-23T08:21:05.868Z,7.00
2023-08-23T08:23:33.068Z,6.77
2023-08-23T08:26:00.240Z,5.60
2023-08-23T08:28:27.457Z,6.40
2023-08-23T08:30:54.581Z,6.50
2023-08-23T08:33:21.742Z,5.50
2023-08-23T08:35:48.875Z,6.33
2023-08-23T08:38:16.034Z,6.63
2023-08-23T08:40:43.225Z,5.90
2023-08-23T08:43:11.100Z,6.80
2023-08-23T08:45:39.030Z,5.63
2023-08-23T08:48:07.104Z,4.90
2023-08-23T08:50:34.593Z,6.63
2023-08-23T08:53:02.100Z,6.53
2023-08-23T08:55:32.452Z,7.60
2023-08-23T08:57:59.594Z,5.90
2023-08-23T09:00:30.585Z,6.80
2023-08-23T09:02:59.073Z,7.90
2023-08-23T09:05:26.595Z,5.30
2023-08-23T09:07:53.869Z,6.13
2023-08-23T09:10:21.315Z,5.67
2023-08-23T09:12:48.461Z,6.50
2023-08-23T09:15:21.422Z,6.30
2023-08-23T09:17:48.810Z,5.67
2023-08-23T09:20:16.338Z,5.97
2023-08-23T09:22:43.517Z,6.23
2023-08-23T09:25:10.686Z,6.00
2023-08-23T09:27:38.918Z,6.70
2023-08-23T09:30:06.553Z,6.27
2023-08-23T09:32:33.845Z,5.40
2023-08-23T09:35:16.555Z,6.37
2023-08-23T09:37:47.386Z,6.17
2023-08-23T09:40:24.516Z,5.80
2023-08-23T09:42:52.018Z,6.37
2023-08-23T09:45:23.194Z,5.65
2023-08-23T09:47:54.314Z,5.75
2023-08-23T09:50:21.926Z,5.88
2023-08-23T09:52:53.520Z,7.10
2023-08-23T09:55:20.742Z,5.85
2023-08-23T09:57:48.301Z,6.13
2023-08-23T10:00:16.419Z,6.50
2023-08-23T10:02:43.686Z,6.30
2023-08-23T10:05:13.007Z,6.80
2023-08-23T10:07:43.077Z,6.10
2023-08-23T10:10:10.599Z,9.00
2023-08-23T10:12:38.280Z,9.53
2023-08-23T10:15:05.942Z,6.53
2023-08-23T10:17:33.077Z,6.17
2023-08-23T10:20:00.278Z,14.57
2023-08-23T10:22:27.471Z,6.70
2023-08-23T10:24:54.672Z,5.97
2023-08-23T10:27:25.679Z,6.50
2023-08-23T10:29:52.859Z,6.10
2023-08-23T10:32:20.277Z,6.10
2023-08-23T10:34:47.556Z,7.50
2023-08-23T10:37:18.645Z,6.70
2023-08-23T10:39:50.188Z,6.18
2023-08-23T10:42:20.631Z,5.72
2023-08-23T10:44:48.453Z,6.65
2023-08-23T10:47:16.248Z,6.73
2023-08-23T10:49:43.398Z,7.30
2023-08-23T10:52:10.626Z,6.93
2023-08-23T10:54:37.739Z,7.60
2023-08-23T10:57:04.940Z,6.10
2023-08-23T10:59:32.043Z,7.53
2023-08-23T11:01:59.245Z,6.35
2023-08-23T11:04:26.751Z,5.95
2023-08-23T11:06:54.939Z,6.72
2023-08-23T11:09:22.271Z,7.73
2023-08-23T11:11:49.375Z,6.63
2023-08-23T11:14:16.489Z,6.90
2023-08-23T11:16:43.940Z,6.38
2023-08-23T11:19:11.604Z,6.07
2023-08-23T11:21:38.715Z,5.50
2023-08-23T11:24:06.129Z,6.85
2023-08-23T11:26:36.402Z,6.30
2023-08-23T11:29:04.123Z,6.57
2023-08-23T11:31:31.290Z,6.93
2023-08-23T11:33:58.916Z,6.90
2023-08-23T11:36:27.343Z,6.28
2023-08-23T11:38:54.741Z,6.78
2023-08-23T11:41:29.252Z,6.80
2023-08-23T11:43:56.442Z,6.93
2023-08-23T11:46:25.377Z,9.38
2023-08-23T11:48:52.778Z,6.38
2023-08-23T11:51:19.914Z,6.05
2023-08-23T11:53:56.121Z,6.90
2023-08-23T11:56:23.336Z,6.07
2023-08-23T11:58:50.497Z,6.40
2023-08-23T12:01:17.686Z,8.18
2023-08-23T12:03:47.180Z,6.75
2023-08-23T12:06:14.354Z,6.97
2023-08-23T12:08:41.513Z,6.03
2023-08-23T12:11:08.657Z,6.25
2023-08-23T12:13:37.205Z,5.65
2023-08-23T12:16:04.480Z,6.20
2023-08-23T12:18:31.668Z,7.03
2023-08-23T12:20:58.850Z,7.28
2023-08-23T12:23:25.990Z,6.30
2023-08-23T12:29:44.654Z,7.03
2023-08-23T12:32:11.809Z,6.03
2023-08-23T12:34:39.003Z,6.68
2023-08-23T12:37:06.105Z,7.35
2023-08-23T12:39:33.218Z,5.63
2023-08-23T12:42:00.387Z,5.70
2023-08-23T12:44:27.608Z,8.20
2023-08-23T12:46:54.861Z,6.00
2023-08-23T12:49:23.329Z,6.25
2023-08-23T12:51:50.497Z,6.53
2023-08-23T12:54:17.607Z,5.95
2023-08-23T12:56:44.691Z,6.40
2023-08-23T12:59:12.059Z,5.90
2023-08-23T13:01:39.199Z,6.10
2023-08-23T13:04:06.452Z,5.63
2023-08-23T13:06:33.589Z,5.38
2023-08-23T13:09:00.708Z,5.47
2023-08-23T13:11:27.870Z,5.65
2023-08-23T13:13:55.004Z,6.22
2023-08-23T13:16:22.173Z,5.90
2023-08-23T13:18:49.346Z,5.72
2023-08-23T13:21:16.484Z,6.75
2023-08-23T13:23:43.687Z,5.82
2023-08-23T13:26:10.877Z,5.28
2023-08-23T13:28:38.062Z,6.32
2023-08-23T13:31:05.868Z,5.65
2023-08-23T13:33:33.095Z,6.07
2023-08-23T13:36:00.561Z,5.72
2023-08-23T13:38:27.826Z,5.80
2023-08-23T13:40:54.937Z,6.10
2023-08-23T13:43:22.065Z,6.93
2023-08-23T13:45:49.315Z,6.10
2023-08-23T13:48:16.528Z,5.97
2023-08-23T13:50:43.833Z,6.23
2023-08-23T13:53:11.046Z,6.73
2023-08-23T13:55:38.460Z,6.63
2023-08-23T13:58:05.744Z,5.93
2023-08-23T14:00:32.859Z,6.03
2023-08-23T14:03:00.089Z,5.40
2023-08-23T14:05:28.756Z,6.60
2023-08-23T14:07:55.978Z,6.07
2023-08-23T14:10:23.149Z,5.23
2023-08-23T14:12:50.256Z,6.10
2023-08-23T14:15:17.370Z,5.45
2023-08-23T14:17:44.630Z,6.80
2023-08-23T14:20:12.104Z,5.63
2023-08-23T14:22:39.681Z,5.70
2023-08-23T14:25:07.756Z,6.82
2023-08-23T14:27:34.957Z,6.60
2023-08-23T14:30:02.120Z,6.07
2023-08-23T14:32:29.656Z,6.10
2023-08-23T14:34:56.910Z,6.43
2023-08-23T14:37:24.128Z,6.07
2023-08-23T14:39:51.243Z,5.10
2023-08-23T14:42:18.927Z,5.90
2023-08-23T14:44:46.076Z,5.68
2023-08-23T14:47:13.210Z,6.05
2023-08-23T14:49:40.325Z,6.07
2023-08-23T14:52:07.574Z,7.18
2023-08-23T14:54:34.658Z,5.90
2023-08-23T14:57:01.787Z,6.75
2023-08-23T14:59:28.926Z,5.68
2023-08-23T15:01:56.066Z,5.93
2023-08-23T15:04:23.194Z,6.80
2023-08-23T15:06:50.334Z,6.65
2023-08-23T15:09:18.354Z,6.40
2023-08-23T15:11:45.495Z,6.85
2023-08-23T15:14:12.569Z,5.93
2023-08-23T15:16:39.784Z,5.32
2023-08-23T15:19:07.615Z,5.90
2023-08-23T15:21:34.744Z,6.68
2023-08-23T15:24:01.873Z,6.75
2023-08-23T15:26:29.290Z,7.80
2023-08-23T15:28:57.519Z,8.17
2023-08-23T15:31:24.968Z,6.57
2023-08-23T15:33:52.290Z,6.80
2023-08-23T15:36:19.402Z,6.78
2023-08-23T15:38:46.504Z,6.23
2023-08-23T15:41:13.975Z,6.93
2023-08-23T15:43:41.061Z,6.82
2023-08-23T15:46:08.249Z,6.78
2023-08-23T15:48:35.580Z,6.63
2023-08-23T15:51:03.797Z,7.33
2023-08-23T15:53:30.914Z,7.03
2023-08-23T15:55:59.227Z,6.45
2023-08-23T15:58:26.587Z,7.47
2023-08-23T16:01:25.017Z,6.60
2023-08-23T16:03:52.166Z,7.20
2023-08-23T16:09:49.371Z,6.23
2023-08-23T16:12:16.485Z,7.23
2023-08-23T16:14:43.559Z,6.53
2023-08-23T16:17:10.728Z,7.67
2023-08-23T16:19:38.814Z,7.67
2023-08-23T16:22:06.111Z,6.90
2023-08-23T16:24:33.341Z,7.65
2023-08-23T16:27:00.478Z,6.93
2023-08-23T16:29:27.860Z,7.03
2023-08-23T16:31:54.995Z,8.00
2023-08-23T16:34:22.443Z,7.43
2023-08-23T16:36:49.607Z,6.83
2023-08-23T16:39:16.733Z,6.03
2023-08-23T16:41:43.831Z,6.60
2023-08-23T16:44:10.958Z,6.70
2023-08-23T16:46:38.164Z,7.00
2023-08-23T16:49:05.273Z,6.37
2023-08-23T16:51:32.353Z,6.50
2023-08-23T16:53:59.447Z,6.03
2023-08-23T16:56:26.619Z,6.83
2023-08-23T16:58:53.814Z,6.37
2023-08-23T17:01:20.983Z,6.33
2023-08-23T17:03:48.114Z,6.50
2023-08-23T17:06:15.241Z,6.93
2023-08-23T17:08:43.628Z,7.23
2023-08-23T17:11:10.760Z,6.30
2023-08-23T17:13:37.906Z,6.10
2023-08-23T17:16:05.336Z,6.47
2023-08-23T17:18:32.522Z,7.07
2023-08-23T17:21:01.044Z,8.90
2023-08-23T17:23:28.283Z,7.23
2023-08-23T17:25:55.745Z,7.00
2023-08-23T17:28:22.902Z,6.07
2023-08-23T17:30:50.111Z,5.73
2023-08-23T17:33:19.767Z,5.30
2023-08-23T17:35:47.825Z,5.77
2023-08-23T17:38:14.969Z,5.67
2023-08-23T17:40:42.117Z,5.63
2023-08-23T17:43:09.491Z,5.40
2023-08-23T17:45:36.653Z,6.07
2023-08-23T17:48:04.029Z,5.10
2023-08-23T17:50:31.205Z,4.63
2023-08-23T17:52:59.543Z,4.93
2023-08-23T17:55:26.932Z,5.73
2023-08-23T17:57:54.068Z,5.30
2023-08-23T18:03:50.413Z,5.20
2023-08-23T18:06:17.612Z,5.17
2023-08-23T18:08:44.794Z,5.30
2023-08-23T18:11:11.879Z,4.77
2023-08-23T18:13:39.003Z,5.10
2023-08-23T18:16:06.131Z,5.90
2023-08-23T18:18:33.280Z,5.87
2023-08-23T18:21:00.381Z,5.40
2023-08-23T18:23:27.510Z,5.73
2023-08-23T18:25:54.643Z,6.00
2023-08-23T18:28:21.767Z,6.67
2023-08-23T18:30:48.957Z,5.47
2023-08-23T18:33:16.252Z,4.90
2023-08-23T18:35:43.533Z,5.87
2023-08-23T18:38:10.733Z,4.97
2023-08-23T18:40:37.949Z,4.23
2023-08-23T18:43:05.343Z,5.00
2023-08-23T18:45:32.457Z,4.17
2023-08-23T18:47:59.743Z,5.57
2023-08-23T18:50:26.926Z,5.13
2023-08-23T18:52:54.061Z,6.23
2023-08-23T18:55:21.152Z,5.93
2023-08-23T18:57:49.523Z,6.73
2023-08-23T19:00:17.014Z,5.87
2023-08-23T19:02:44.946Z,5.90
2023-08-23T19:05:12.994Z,5.30
2023-08-23T19:07:40.138Z,5.77
2023-08-23T19:10:07.470Z,5.70
2023-08-23T19:12:35.325Z,5.30
2023-08-23T19:15:02.439Z,5.37
2023-08-23T19:17:29.583Z,5.33
2023-08-23T19:19:56.687Z,7.13
2023-08-23T19:22:23.890Z,6.00
2023-08-23T19:24:50.988Z,6.30
2023-08-23T19:27:18.166Z,5.77
2023-08-23T19:29:45.259Z,6.10
2023-08-23T19:32:12.434Z,5.83
2023-08-23T19:34:39.678Z,6.13
2023-08-23T19:37:08.685Z,5.70
2023-08-23T19:39:36.114Z,6.03
2023-08-23T19:42:03.882Z,7.43
2023-08-23T19:44:31.001Z,6.67
2023-08-23T19:46:58.174Z,5.67
2023-08-23T19:49:25.296Z,6.23
2023-08-23T19:51:52.422Z,6.27
2023-08-23T19:54:19.794Z,6.23
2023-08-23T19:56:47.179Z,6.63
2023-08-23T19:59:14.356Z,6.90
2023-08-23T20:01:41.732Z,6.63
2023-08-23T20:04:08.844Z,6.37
2023-08-23T20:06:35.975Z,5.90
2023-08-23T20:09:03.384Z,7.20
2023-08-23T20:11:30.499Z,7.43
2023-08-23T20:13:57.758Z,7.37
2023-08-23T20:16:24.917Z,6.60
2023-08-23T20:18:52.045Z,7.27
2023-08-23T20:21:19.188Z,7.07
2023-08-23T20:23:46.284Z,7.40
2023-08-23T20:26:13.405Z,8.20
2023-08-23T20:28:40.513Z,7.43
2023-08-23T20:31:07.703Z,8.20
2023-08-23T20:33:35.020Z,7.60
2023-08-23T20:36:02.168Z,7.10
2023-08-23T20:38:31.615Z,6.97
2023-08-23T20:40:58.797Z,7.47
2023-08-23T20:43:25.904Z,7.53
2023-08-23T20:46:00.771Z,7.73
2023-08-23T20:48:28.160Z,7.13
2023-08-23T20:50:55.299Z,7.90
2023-08-23T20:53:22.407Z,7.67
2023-08-23T20:55:51.536Z,8.00
2023-08-23T20:58:21.544Z,8.43
2023-08-23T21:00:48.867Z,7.30
2023-08-23T21:03:16.180Z,8.60
2023-08-23T21:05:44.207Z,9.50
2023-08-23T21:08:11.393Z,8.97
2023-08-23T21:10:41.686Z,7.73
2023-08-23T21:13:09.249Z,7.83
2023-08-23T21:15:36.863Z,7.73
2023-08-23T21:18:04.137Z,8.17
2023-08-23T21:20:31.272Z,9.30
2023-08-23T21:22:58.392Z,8.30
2023-08-23T21:25:25.608Z,8.13
2023-08-23T21:27:52.870Z,8.57
2023-08-23T21:30:20.092Z,8.33
2023-08-23T21:32:49.102Z,9.20
2023-08-23T21:35:18.668Z,8.93
2023-08-23T21:37:46.446Z,8.67
2023-08-23T21:40:13.744Z,8.47
2023-08-23T21:42:40.841Z,7.70
2023-08-23T21:45:08.226Z,7.77
2023-08-23T21:47:35.392Z,8.20
2023-08-23T21:50:02.584Z,7.67
2023-08-23T21:52:29.751Z,8.23
2023-08-23T21:54:56.903Z,8.00
2023-08-23T21:57:24.010Z,7.90
2023-08-23T21:59:51.159Z,8.53
2023-08-23T22:02:18.315Z,8.07
2023-08-23T22:04:45.764Z,10.03
2023-08-23T22:07:12.877Z,7.70
2023-08-23T22:09:40.052Z,8.20
2023-08-23T22:12:07.337Z,8.33
2023-08-23T22:14:34.510Z,7.73
2023-08-23T22:17:01.797Z,9.00
2023-08-23T22:19:29.254Z,8.80
2023-08-23T22:21:59.108Z,7.63
2023-08-23T22:24:26.448Z,7.93
2023-08-23T22:26:53.657Z,7.53
2023-08-23T22:29:24.054Z,7.87
2023-08-23T22:31:51.344Z,8.10
2023-08-23T22:34:18.463Z,7.97
2023-08-23T22:36:45.698Z,8.10
2023-08-23T22:39:13.101Z,9.40
2023-08-23T22:41:40.472Z,7.93
2023-08-23T22:44:09.014Z,9.60
2023-08-23T22:46:36.316Z,9.00
2023-08-23T22:49:03.634Z,8.30
2023-08-23T22:51:30.797Z,9.30
2023-08-23T22:53:58.045Z,9.00
2023-08-23T22:56:25.182Z,9.20
2023-08-23T22:58:52.319Z,8.90
2023-08-23T23:01:19.487Z,9.23
2023-08-23T23:03:46.710Z,10.40
2023-08-23T23:06:13.845Z,9.80
2023-08-23T23:08:41.038Z,8.60
2023-08-23T23:11:08.232Z,8.73
2023-08-23T23:13:35.488Z,9.53
2023-08-23T23:16:03.401Z,8.50
2023-08-23T23:18:30.876Z,9.53
2023-08-23T23:20:57.986Z,8.63
2023-08-23T23:23:25.164Z,10.43
2023-08-23T23:25:52.350Z,9.83
2023-08-23T23:28:19.685Z,8.90
2023-08-23T23:30:46.811Z,9.20
2023-08-23T23:33:13.937Z,9.73
2023-08-23T23:35:41.050Z,8.83
2023-08-23T23:38:08.174Z,9.77
2023-08-23T23:40:39.492Z,9.20
2023-08-23T23:43:06.688Z,9.30
2023-08-23T23:45:35.366Z,11.17
2023-08-23T23:48:02.832Z,10.13
2023-08-23T23:50:30.494Z,9.20
2023-08-23T23:52:57.715Z,9.53
2023-08-23T23:55:25.015Z,9.60
2023-08-23T23:57:52.168Z,10.70
